createdAt,value
2023-03-17T00:02:03.606Z,7.95
2023-03-17T00:04:29.887Z,7.95
2023-03-17T00:06:56.268Z,7.93
2023-03-17T00:09:22.699Z,7.91
2023-03-17T00:11:48.983Z,7.90
2023-03-17T00:14:15.289Z,7.89
2023-03-17T00:16:41.671Z,7.88
2023-03-17T00:19:08.042Z,7.86
2023-03-17T00:21:34.380Z,7.86
2023-03-17T00:24:00.739Z,7.86
2023-03-17T00:26:27.123Z,7.84
2023-03-17T00:28:53.760Z,7.82
2023-03-17T00:31:20.156Z,7.83
2023-03-17T00:33:46.442Z,7.83
2023-03-17T00:36:12.827Z,7.83
2023-03-17T00:38:39.221Z,7.83
2023-03-17T00:41:05.565Z,7.84
2023-03-17T00:43:31.887Z,7.84
2023-03-17T00:45:58.269Z,7.85
2023-03-17T00:48:24.663Z,7.84
2023-03-17T00:50:51.032Z,7.83
2023-03-17T00:53:17.352Z,7.83
2023-03-17T00:55:43.713Z,7.84
2023-03-17T00:58:10.038Z,7.85
2023-03-17T01:00:36.434Z,7.83
2023-03-17T01:03:02.772Z,7.84
2023-03-17T01:05:29.126Z,7.83
2023-03-17T01:07:55.483Z,7.84
2023-03-17T01:10:21.825Z,7.83
2023-03-17T01:12:48.143Z,7.82
2023-03-17T01:15:14.490Z,7.83
2023-03-17T01:17:40.873Z,7.84
2023-03-17T01:20:07.281Z,7.83
2023-03-17T01:22:33.600Z,7.82
2023-03-17T01:24:59.990Z,7.81
2023-03-17T01:27:26.318Z,7.81
2023-03-17T01:29:52.672Z,7.81
2023-03-17T01:32:19.038Z,7.81
2023-03-17T01:34:45.449Z,7.80
2023-03-17T01:37:11.760Z,7.79
2023-03-17T01:39:38.103Z,7.79
2023-03-17T01:42:04.431Z,7.80
2023-03-17T01:44:30.792Z,7.80
2023-03-17T01:46:57.102Z,7.80
2023-03-17T01:49:23.527Z,7.80
2023-03-17T01:51:49.867Z,7.80
2023-03-17T01:54:16.206Z,7.82
2023-03-17T01:56:42.582Z,7.81
2023-03-17T01:59:09.227Z,7.82
2023-03-17T02:01:35.552Z,7.80
2023-03-17T02:04:01.972Z,7.82
2023-03-17T02:06:28.248Z,7.82
2023-03-17T02:08:54.608Z,7.81
2023-03-17T02:11:20.986Z,7.81
2023-03-17T02:13:47.329Z,7.82
2023-03-17T02:16:13.666Z,7.80
2023-03-17T02:18:40.011Z,7.80
2023-03-17T02:21:06.320Z,7.79
2023-03-17T02:23:32.741Z,7.80
2023-03-17T02:25:59.197Z,7.80
2023-03-17T02:28:25.503Z,7.81
2023-03-17T02:30:51.924Z,7.83
2023-03-17T02:33:18.268Z,7.82
2023-03-17T02:35:44.702Z,7.82
2023-03-17T02:38:11.048Z,7.81
2023-03-17T02:40:37.365Z,7.80
2023-03-17T02:43:03.781Z,7.82
2023-03-17T02:45:30.098Z,7.82
2023-03-17T02:47:56.488Z,7.82
2023-03-17T02:50:22.844Z,7.81
2023-03-17T02:52:49.226Z,7.82
2023-03-17T02:55:15.561Z,7.80
2023-03-17T02:57:41.927Z,7.80
2023-03-17T03:00:08.225Z,7.79
2023-03-17T03:02:34.618Z,7.79
2023-03-17T03:05:00.974Z,7.78
2023-03-17T03:07:27.330Z,7.76
2023-03-17T03:09:53.709Z,7.74
2023-03-17T03:12:20.113Z,7.72
2023-03-17T03:14:46.821Z,7.72
2023-03-17T03:17:13.200Z,7.67
2023-03-17T03:19:39.552Z,7.64
2023-03-17T03:22:05.952Z,7.61
2023-03-17T03:24:33.458Z,7.60
2023-03-17T03:26:59.818Z,7.58
2023-03-17T03:29:26.166Z,7.56
2023-03-17T03:31:52.510Z,7.56
2023-03-17T03:34:18.880Z,7.57
2023-03-17T03:36:45.303Z,7.57
2023-03-17T03:39:14.276Z,7.56
2023-03-17T03:41:38.177Z,7.56
2023-03-17T03:44:04.559Z,7.58
2023-03-17T03:46:31.136Z,7.58
2023-03-17T03:48:57.385Z,7.58
2023-03-17T03:51:23.825Z,7.58
2023-03-17T03:53:50.258Z,7.59
2023-03-17T03:56:16.579Z,7.60
2023-03-17T03:58:42.957Z,7.59
2023-03-17T04:01:09.478Z,7.60
2023-03-17T04:03:35.806Z,7.61
2023-03-17T04:06:02.169Z,7.62
2023-03-17T04:08:28.524Z,7.63
2023-03-17T04:10:54.886Z,7.61
2023-03-17T04:13:21.237Z,7.62
2023-03-17T04:15:47.594Z,7.63
2023-03-17T04:18:13.975Z,7.63
2023-03-17T04:20:40.292Z,7.64
2023-03-17T04:23:06.720Z,7.64
2023-03-17T04:25:33.064Z,7.64
2023-03-17T04:27:59.415Z,7.64
2023-03-17T04:30:25.772Z,7.64
2023-03-17T04:32:52.177Z,7.65
2023-03-17T04:35:18.484Z,7.64
2023-03-17T04:37:44.875Z,7.65
2023-03-17T04:40:11.355Z,7.65
2023-03-17T04:42:37.704Z,7.65
2023-03-17T04:45:04.062Z,7.65
2023-03-17T04:47:30.456Z,7.67
2023-03-17T04:49:56.777Z,7.66
2023-03-17T04:52:23.124Z,7.67
2023-03-17T04:54:49.532Z,7.67
2023-03-17T04:57:15.918Z,7.68
2023-03-17T04:59:42.246Z,7.69
2023-03-17T05:02:08.655Z,7.68
2023-03-17T05:04:34.952Z,7.69
2023-03-17T05:07:01.361Z,7.69
2023-03-17T05:09:27.715Z,7.70
2023-03-17T05:11:54.060Z,7.72
2023-03-17T05:14:20.449Z,7.72
2023-03-17T05:16:46.866Z,7.74
2023-03-17T05:19:13.172Z,7.75
2023-03-17T05:21:39.626Z,7.76
2023-03-17T05:24:05.979Z,7.76
2023-03-17T05:26:32.331Z,7.79
2023-03-17T05:28:58.695Z,7.81
2023-03-17T05:31:25.064Z,7.81
2023-03-17T05:33:51.412Z,7.82
2023-03-17T05:36:17.801Z,7.85
2023-03-17T05:38:45.323Z,7.86
2023-03-17T05:41:11.717Z,7.88
2023-03-17T05:43:38.051Z,7.89
2023-03-17T05:46:04.530Z,7.90
2023-03-17T05:48:30.850Z,7.93
2023-03-17T05:50:57.155Z,7.95
2023-03-17T05:53:23.631Z,7.97
2023-03-17T05:55:49.975Z,7.98
2023-03-17T05:58:16.352Z,8.01
2023-03-17T06:00:42.695Z,8.03
2023-03-17T06:03:09.089Z,8.05
2023-03-17T06:05:35.417Z,8.07
2023-03-17T06:08:01.750Z,8.10
2023-03-17T06:10:28.126Z,8.13
2023-03-17T06:12:54.464Z,8.14
2023-03-17T06:15:20.879Z,8.17
2023-03-17T06:17:47.202Z,8.20
2023-03-17T06:20:13.611Z,8.23
2023-03-17T06:22:51.640Z,8.24
2023-03-17T06:25:06.275Z,8.28
2023-03-17T06:27:32.594Z,8.31
2023-03-17T06:29:59.010Z,8.35
2023-03-17T06:32:25.373Z,8.40
2023-03-17T06:34:51.712Z,8.43
2023-03-17T06:37:18.063Z,8.47
2023-03-17T06:39:44.503Z,8.51
2023-03-17T06:42:10.819Z,8.56
2023-03-17T06:44:37.225Z,8.60
2023-03-17T06:47:03.599Z,8.64
2023-03-17T06:49:30.025Z,8.68
2023-03-17T06:51:56.392Z,8.73
2023-03-17T06:54:22.770Z,8.77
2023-03-17T06:56:49.131Z,8.82
2023-03-17T06:59:15.506Z,8.84
2023-03-17T07:01:41.931Z,8.91
2023-03-17T07:04:08.221Z,8.96
2023-03-17T07:06:34.559Z,8.99
2023-03-17T07:09:02.261Z,9.02
2023-03-17T07:11:27.283Z,9.06
2023-03-17T07:13:53.682Z,9.09
2023-03-17T07:16:20.092Z,9.13
2023-03-17T07:18:46.446Z,9.18
2023-03-17T07:21:12.805Z,9.22
2023-03-17T07:23:39.212Z,9.27
2023-03-17T07:26:05.599Z,9.31
2023-03-17T07:28:32.077Z,9.37
2023-03-17T07:30:58.480Z,9.42
2023-03-17T07:33:24.823Z,9.47
2023-03-17T07:35:51.257Z,9.53
2023-03-17T07:38:17.584Z,9.58
2023-03-17T07:40:43.908Z,9.62
2023-03-17T07:43:10.298Z,9.67
2023-03-17T07:45:36.728Z,9.72
2023-03-17T07:48:03.051Z,9.77
2023-03-17T07:50:29.503Z,9.84
2023-03-17T07:52:55.783Z,9.89
2023-03-17T07:55:22.128Z,9.96
2023-03-17T07:57:48.530Z,10.01
2023-03-17T08:00:15.071Z,10.07
2023-03-17T08:02:41.464Z,10.13
2023-03-17T08:05:07.916Z,10.18
2023-03-17T08:07:34.254Z,10.23
2023-03-17T08:10:00.592Z,10.26
2023-03-17T08:12:26.996Z,10.32
2023-03-17T08:14:53.375Z,10.35
2023-03-17T08:17:20.826Z,10.37
2023-03-17T08:19:47.160Z,10.40
2023-03-17T08:22:13.570Z,10.43
2023-03-17T08:24:39.871Z,10.46
2023-03-17T08:27:06.256Z,10.49
2023-03-17T08:29:32.579Z,10.52
2023-03-17T08:31:59.205Z,10.55
2023-03-17T08:34:27.937Z,10.58
2023-03-17T08:36:54.313Z,10.62
2023-03-17T08:39:20.654Z,10.65
2023-03-17T08:41:47.017Z,10.70
2023-03-17T08:44:13.378Z,10.74
2023-03-17T08:46:39.766Z,10.79
2023-03-17T08:49:06.134Z,10.84
2023-03-17T08:51:32.497Z,10.88
2023-03-17T08:53:58.812Z,10.92
2023-03-17T08:56:25.189Z,10.96
2023-03-17T08:58:51.525Z,11.00
2023-03-17T09:01:17.879Z,11.03
2023-03-17T09:03:44.241Z,11.07
2023-03-17T09:06:10.627Z,11.12
2023-03-17T09:08:36.946Z,11.16
2023-03-17T09:11:03.457Z,11.20
2023-03-17T09:13:29.730Z,11.24
2023-03-17T09:15:56.176Z,11.28
2023-03-17T09:18:22.465Z,11.33
2023-03-17T09:20:48.849Z,11.37
2023-03-17T09:23:15.214Z,11.42
2023-03-17T09:25:41.664Z,11.47
2023-03-17T09:28:08.041Z,11.53
2023-03-17T09:30:34.445Z,11.58
2023-03-17T09:33:00.892Z,11.64
2023-03-17T09:35:27.169Z,11.70
2023-03-17T09:37:53.564Z,11.74
2023-03-17T09:40:19.923Z,11.80
2023-03-17T09:42:46.272Z,11.84
2023-03-17T09:45:14.901Z,11.89
2023-03-17T09:47:42.831Z,11.93
2023-03-17T09:50:07.709Z,11.96
2023-03-17T09:52:34.032Z,12.00
2023-03-17T09:55:00.382Z,12.04
2023-03-17T09:57:26.716Z,12.09
2023-03-17T09:59:53.103Z,12.13
2023-03-17T10:02:19.619Z,12.16
2023-03-17T10:04:45.995Z,12.19
2023-03-17T10:07:12.373Z,12.22
2023-03-17T10:09:38.741Z,12.24
2023-03-17T10:12:05.153Z,12.28
2023-03-17T10:14:31.499Z,12.31
2023-03-17T10:16:57.836Z,12.33
2023-03-17T10:19:24.223Z,12.37
2023-03-17T10:21:50.585Z,12.38
2023-03-17T10:24:16.960Z,12.42
2023-03-17T10:26:43.329Z,12.45
2023-03-17T10:29:09.685Z,12.48
2023-03-17T10:31:36.076Z,12.51
2023-03-17T10:34:02.438Z,12.54
2023-03-17T10:36:28.762Z,12.57
2023-03-17T10:38:55.133Z,12.61
2023-03-17T10:41:21.552Z,12.64
2023-03-17T10:43:47.854Z,12.66
2023-03-17T10:46:14.223Z,12.69
2023-03-17T10:48:40.651Z,12.72
2023-03-17T10:51:06.995Z,12.75
2023-03-17T10:53:35.147Z,12.77
2023-03-17T10:56:01.506Z,12.80
2023-03-17T10:58:27.906Z,12.83
2023-03-17T11:00:54.305Z,12.88
2023-03-17T11:03:20.652Z,12.92
2023-03-17T11:05:47.035Z,12.97
2023-03-17T11:08:13.395Z,13.00
2023-03-17T11:10:39.740Z,13.06
2023-03-17T11:13:06.151Z,13.10
2023-03-17T11:15:32.528Z,13.16
2023-03-17T11:17:58.945Z,13.22
2023-03-17T11:20:25.404Z,13.32
2023-03-17T11:22:51.904Z,13.47
2023-03-17T11:25:18.259Z,13.64
2023-03-17T11:27:44.660Z,13.81
2023-03-17T11:30:12.805Z,13.97
2023-03-17T11:32:37.631Z,14.13
2023-03-17T11:35:04.118Z,14.27
2023-03-17T11:37:30.460Z,14.43
2023-03-17T11:39:56.801Z,14.60
2023-03-17T11:42:23.210Z,14.76
2023-03-17T11:44:49.608Z,14.89
2023-03-17T11:47:16.353Z,15.05
2023-03-17T11:49:42.695Z,15.21
2023-03-17T11:52:09.264Z,15.35
2023-03-17T11:54:35.687Z,15.48
2023-03-17T11:57:02.133Z,15.63
2023-03-17T11:59:28.413Z,15.77
2023-03-17T12:01:54.890Z,15.93
2023-03-17T12:04:21.212Z,16.09
2023-03-17T12:06:47.605Z,16.25
2023-03-17T12:09:14.036Z,16.41
2023-03-17T12:11:40.409Z,16.54
2023-03-17T12:14:06.743Z,16.64
2023-03-17T12:16:33.088Z,16.72
2023-03-17T12:18:59.461Z,16.82
2023-03-17T12:21:25.821Z,16.94
2023-03-17T12:23:52.169Z,17.06
2023-03-17T12:26:18.545Z,17.16
2023-03-17T12:28:44.913Z,17.27
2023-03-17T12:31:11.312Z,17.39
2023-03-17T12:33:37.627Z,17.54
2023-03-17T12:36:04.054Z,17.69
2023-03-17T12:38:30.493Z,17.81
2023-03-17T12:40:56.880Z,17.89
2023-03-17T12:43:23.340Z,17.97
2023-03-17T12:45:49.681Z,18.02
2023-03-17T12:48:16.051Z,18.11
2023-03-17T12:50:42.431Z,18.05
2023-03-17T12:53:08.824Z,17.58
2023-03-17T12:55:35.293Z,17.24
2023-03-17T12:58:01.666Z,16.98
2023-03-17T13:00:28.052Z,16.89
2023-03-17T13:02:54.388Z,16.70
2023-03-17T13:05:20.781Z,16.66
2023-03-17T13:07:47.164Z,16.55
2023-03-17T13:10:13.537Z,16.35
2023-03-17T13:12:39.942Z,16.19
2023-03-17T13:15:06.251Z,16.18
2023-03-17T13:17:32.612Z,16.09
2023-03-17T13:19:58.957Z,15.99
2023-03-17T13:22:25.327Z,15.98
2023-03-17T13:24:51.697Z,16.10
2023-03-17T13:27:18.074Z,16.12
2023-03-17T13:29:44.443Z,15.99
2023-03-17T13:32:10.828Z,15.90
2023-03-17T13:34:37.211Z,15.80
2023-03-17T13:37:03.566Z,15.67
2023-03-17T13:39:30.007Z,15.53
2023-03-17T13:41:57.686Z,15.41
2023-03-17T13:44:22.703Z,15.24
2023-03-17T13:46:49.147Z,15.04
2023-03-17T13:49:16.513Z,14.84
2023-03-17T13:51:52.707Z,14.68
2023-03-17T13:54:09.273Z,14.59
2023-03-17T13:56:35.607Z,14.46
2023-03-17T13:59:01.944Z,14.32
2023-03-17T14:01:28.277Z,14.15
2023-03-17T14:03:54.789Z,14.00
2023-03-17T14:06:21.072Z,13.88
2023-03-17T14:08:48.583Z,13.80
2023-03-17T14:11:15.333Z,13.66
2023-03-17T14:13:41.688Z,13.64
2023-03-17T14:16:10.217Z,13.57
2023-03-17T14:18:36.528Z,13.47
2023-03-17T14:21:02.917Z,13.37
2023-03-17T14:23:29.245Z,13.24
2023-03-17T14:25:55.598Z,13.17
2023-03-17T14:28:22.041Z,13.09
2023-03-17T14:30:48.384Z,12.98
2023-03-17T14:33:18.240Z,12.94
2023-03-17T14:35:43.639Z,12.91
2023-03-17T14:38:09.780Z,12.88
2023-03-17T14:40:36.150Z,12.80
2023-03-17T14:43:02.471Z,12.72
2023-03-17T14:45:29.195Z,12.69
2023-03-17T14:47:55.206Z,12.63
2023-03-17T14:50:21.606Z,12.87
2023-03-17T14:52:47.998Z,12.87
2023-03-17T14:55:14.295Z,12.80
2023-03-17T14:57:40.628Z,12.70
2023-03-17T15:00:07.454Z,12.59
2023-03-17T15:02:33.858Z,12.49
2023-03-17T15:05:00.155Z,12.39
2023-03-17T15:07:26.585Z,12.30
2023-03-17T15:09:52.941Z,12.20
2023-03-17T15:12:19.432Z,12.14
2023-03-17T15:14:45.782Z,12.07
2023-03-17T15:17:14.463Z,12.01
2023-03-17T15:19:38.545Z,11.96
2023-03-17T15:22:04.908Z,11.96
2023-03-17T15:24:31.336Z,11.96
2023-03-17T15:26:57.699Z,11.93
2023-03-17T15:29:24.047Z,11.89
2023-03-17T15:31:50.773Z,11.85
2023-03-17T15:34:17.129Z,11.80
2023-03-17T15:36:43.532Z,11.77
2023-03-17T15:39:09.998Z,11.73
2023-03-17T15:41:36.322Z,11.68
2023-03-17T15:44:04.164Z,11.62
2023-03-17T15:46:29.367Z,11.58
2023-03-17T15:48:55.681Z,11.55
2023-03-17T15:51:22.101Z,11.52
2023-03-17T15:53:48.486Z,11.43
2023-03-17T15:56:15.905Z,11.36
2023-03-17T15:58:42.252Z,11.34
2023-03-17T16:01:08.654Z,11.32
2023-03-17T16:03:35.007Z,11.26
2023-03-17T16:06:01.386Z,11.20
2023-03-17T16:08:27.827Z,11.18
2023-03-17T16:10:54.183Z,11.16
2023-03-17T16:13:20.646Z,11.15
2023-03-17T16:15:47.191Z,11.09
2023-03-17T16:18:13.591Z,11.08
2023-03-17T16:20:39.871Z,11.04
2023-03-17T16:23:06.289Z,11.00
2023-03-17T16:25:32.620Z,10.95
2023-03-17T16:27:59.058Z,10.93
2023-03-17T16:30:25.349Z,10.89
2023-03-17T16:32:51.909Z,10.87
2023-03-17T16:35:18.245Z,10.83
2023-03-17T16:37:44.595Z,10.79
2023-03-17T16:40:10.997Z,10.74
2023-03-17T16:42:37.385Z,10.67
2023-03-17T16:45:03.794Z,10.61
2023-03-17T16:47:30.226Z,10.57
2023-03-17T16:49:56.618Z,10.53
2023-03-17T16:52:23.013Z,10.48
2023-03-17T16:54:49.380Z,10.43
2023-03-17T16:57:15.770Z,10.37
2023-03-17T16:59:42.130Z,10.32
2023-03-17T17:02:08.535Z,10.29
2023-03-17T17:04:34.872Z,10.25
2023-03-17T17:07:01.241Z,10.21
2023-03-17T17:09:27.593Z,10.17
2023-03-17T17:11:53.987Z,10.11
2023-03-17T17:14:20.303Z,10.04
2023-03-17T17:16:46.712Z,9.99
2023-03-17T17:19:13.093Z,9.93
2023-03-17T17:21:39.473Z,9.88
2023-03-17T17:24:05.834Z,9.80
2023-03-17T17:26:32.533Z,9.73
2023-03-17T17:28:58.901Z,9.69
2023-03-17T17:31:25.328Z,9.66
2023-03-17T17:33:51.730Z,9.62
2023-03-17T17:36:18.143Z,9.60
2023-03-17T17:38:44.734Z,9.56
2023-03-17T17:41:11.073Z,9.50
2023-03-17T17:43:37.408Z,9.46
2023-03-17T17:46:03.743Z,9.42
2023-03-17T17:48:30.178Z,9.38
2023-03-17T17:50:56.591Z,9.34
2023-03-17T17:53:22.875Z,9.32
2023-03-17T17:55:49.234Z,9.33
2023-03-17T17:58:15.650Z,9.25
2023-03-17T18:00:42.000Z,9.17
2023-03-17T18:03:08.439Z,9.10
2023-03-17T18:05:34.855Z,9.03
2023-03-17T18:08:01.253Z,8.97
2023-03-17T18:10:27.591Z,8.93
2023-03-17T18:12:53.991Z,8.91
2023-03-17T18:15:20.330Z,8.87
2023-03-17T18:17:46.671Z,8.84
2023-03-17T18:20:13.023Z,8.79
2023-03-17T18:22:39.462Z,8.77
2023-03-17T18:25:06.929Z,8.75
2023-03-17T18:27:32.176Z,8.73
2023-03-17T18:29:58.902Z,8.70
2023-03-17T18:32:25.228Z,8.58
2023-03-17T18:34:51.614Z,8.64
2023-03-17T18:37:19.250Z,8.60
2023-03-17T18:39:44.442Z,8.58
2023-03-17T18:42:10.809Z,8.56
2023-03-17T18:44:37.179Z,8.53
2023-03-17T18:47:03.572Z,8.47
2023-03-17T18:49:29.956Z,8.46
2023-03-17T18:51:56.284Z,8.44
2023-03-17T18:54:22.624Z,8.42
2023-03-17T18:56:49.011Z,8.39
2023-03-17T18:59:15.398Z,8.37
2023-03-17T19:01:41.723Z,8.35
2023-03-17T19:04:08.137Z,8.34
2023-03-17T19:06:34.521Z,8.32
2023-03-17T19:09:00.910Z,8.30
2023-03-17T19:11:27.201Z,8.27
2023-03-17T19:13:53.616Z,8.25
2023-03-17T19:16:19.997Z,8.22
2023-03-17T19:18:46.395Z,8.20
2023-03-17T19:21:12.724Z,8.19
2023-03-17T19:23:39.140Z,8.18
2023-03-17T19:26:05.514Z,8.16
2023-03-17T19:28:31.857Z,8.14
2023-03-17T19:30:58.358Z,8.14
2023-03-17T19:33:24.702Z,8.13
2023-03-17T19:35:51.363Z,8.10
2023-03-17T19:38:17.706Z,8.08
2023-03-17T19:40:44.061Z,8.06
2023-03-17T19:43:10.464Z,8.04
2023-03-17T19:45:36.846Z,8.03
2023-03-17T19:48:03.250Z,8.00
2023-03-17T19:50:29.964Z,7.99
2023-03-17T19:52:56.006Z,7.98
2023-03-17T19:55:22.439Z,7.96
2023-03-17T19:57:48.890Z,7.95
2023-03-17T20:00:15.195Z,7.93
2023-03-17T20:02:41.580Z,7.92
2023-03-17T20:05:07.869Z,7.90
2023-03-17T20:07:34.295Z,7.88
2023-03-17T20:10:00.585Z,7.86
2023-03-17T20:12:26.945Z,7.83
2023-03-17T20:14:53.322Z,7.81
2023-03-17T20:17:19.664Z,7.80
2023-03-17T20:19:45.993Z,7.77
2023-03-17T20:22:12.380Z,7.75
2023-03-17T20:24:38.760Z,7.74
2023-03-17T20:27:05.161Z,7.74
2023-03-17T20:29:31.537Z,7.72
2023-03-17T20:31:57.909Z,7.67
2023-03-17T20:34:24.267Z,7.69
2023-03-17T20:36:50.631Z,7.66
2023-03-17T20:39:17.231Z,7.63
2023-03-17T20:41:43.613Z,7.65
2023-03-17T20:44:09.944Z,7.64
2023-03-17T20:46:36.496Z,7.63
2023-03-17T20:49:02.786Z,7.59
2023-03-17T20:51:29.116Z,7.58
2023-03-17T20:53:55.510Z,7.56
2023-03-17T20:56:21.898Z,7.55
2023-03-17T20:58:48.253Z,7.53
2023-03-17T21:01:14.601Z,7.52
2023-03-17T21:03:40.971Z,7.50
2023-03-17T21:06:07.414Z,7.49
2023-03-17T21:08:33.744Z,7.47
2023-03-17T21:11:00.090Z,7.46
2023-03-17T21:13:26.447Z,7.44
2023-03-17T21:15:52.849Z,7.43
2023-03-17T21:18:19.158Z,7.43
2023-03-17T21:20:45.575Z,7.40
2023-03-17T21:23:11.868Z,7.38
2023-03-17T21:25:38.309Z,7.35
2023-03-17T21:28:04.720Z,7.35
2023-03-17T21:30:31.329Z,7.34
2023-03-17T21:32:57.493Z,7.33
2023-03-17T21:35:23.941Z,7.33
2023-03-17T21:37:59.679Z,7.28
2023-03-17T21:40:26.034Z,7.30
2023-03-17T21:42:52.399Z,7.29
2023-03-17T21:45:20.049Z,7.22
2023-03-17T21:47:47.389Z,7.27
2023-03-17T21:50:16.378Z,7.29
2023-03-17T21:52:40.584Z,7.32
2023-03-17T21:55:08.041Z,7.31
2023-03-17T21:57:33.356Z,7.30
2023-03-17T21:59:59.738Z,7.29
2023-03-17T22:02:26.061Z,7.27
2023-03-17T22:04:52.566Z,7.25
2023-03-17T22:07:18.888Z,7.24
2023-03-17T22:09:45.348Z,7.30
2023-03-17T22:12:11.726Z,7.50
2023-03-17T22:14:38.141Z,7.46
2023-03-17T22:17:06.797Z,7.41
2023-03-17T22:19:33.233Z,7.37
2023-03-17T22:21:59.618Z,7.34
2023-03-17T22:24:26.004Z,7.29
2023-03-17T22:26:52.370Z,7.26
2023-03-17T22:29:18.720Z,7.24
2023-03-17T22:31:45.141Z,7.21
2023-03-17T22:34:11.550Z,7.18
2023-03-17T22:36:37.990Z,7.16
2023-03-17T22:39:04.323Z,7.15
2023-03-17T22:41:30.644Z,7.13
2023-03-17T22:43:56.995Z,7.11
2023-03-17T22:46:23.392Z,7.08
2023-03-17T22:48:49.693Z,7.07
2023-03-17T22:51:16.074Z,7.06
2023-03-17T22:53:42.459Z,7.06
2023-03-17T22:56:08.832Z,7.04
2023-03-17T22:58:35.197Z,7.02
2023-03-17T23:01:01.592Z,7.00
2023-03-17T23:03:28.010Z,6.98
2023-03-17T23:05:54.223Z,6.97
2023-03-17T23:08:20.616Z,6.95
2023-03-17T23:10:46.966Z,6.94
2023-03-17T23:13:13.376Z,6.93
2023-03-17T23:15:39.705Z,6.91
2023-03-17T23:18:06.068Z,6.90
2023-03-17T23:20:32.628Z,6.88
2023-03-17T23:22:58.816Z,6.87
2023-03-17T23:25:25.186Z,6.85
2023-03-17T23:27:51.632Z,6.83
2023-03-17T23:30:18.041Z,6.82
2023-03-17T23:32:44.372Z,6.80
2023-03-17T23:35:10.703Z,6.79
2023-03-17T23:37:37.096Z,6.77
2023-03-17T23:40:03.444Z,6.76
2023-03-17T23:42:29.835Z,6.74
2023-03-17T23:44:56.155Z,6.72
2023-03-17T23:47:22.506Z,6.71
2023-03-17T23:49:48.848Z,6.70
2023-03-17T23:52:15.219Z,6.68
2023-03-17T23:54:41.525Z,6.67
2023-03-17T23:57:07.929Z,6.64
2023-03-17T23:59:35.390Z,6.62
